QTR58 EDDM-OTHH
Flight info
| Callsign | QTR58 |
|---|---|
| Flight time | N/A |
| Altitude | 33000 |
| Route | VAVOR3E/08R VAVOR M867 RADIZ DCT NIPEL/N0476F390 DCT DARZA DCT PINDO DCT PAXIS Y707 OBRAN L321 REXUM M872 BOVET/N0486F410 M872 BDB Y214 RAPMA/N0523F290 Y214 ASPUS Y432 LADBO T142 LAEEB |
| Aircraft | A359/H-SDE2E3GHIJ3J4J5LM1ORWXY/LB1D1 |
Departure
| Time | 2026-05-04 11:31 |
|---|---|
| Airport | Munich Airport (EDDM) |
Arrival
| Time | N/A |
|---|---|
| Airport | Hamad International Airport (OTHH) |
| Time | Latitude | Longitude | Altitude | Speed | Heading |
|---|---|---|---|---|---|
| 2026-05-04 11:01 | 48.35373 | 11.78293 | 1483 ft | 0 kts | 83° |
| 2026-05-04 11:16 | 48.35365 | 11.78196 | 1483 ft | 2 kts | 77° |
| 2026-05-04 11:16 | 48.35361 | 11.78174 | 1483 ft | 2 kts | 71° |
| 2026-05-04 11:16 | 48.35356 | 11.78152 | 1483 ft | 2 kts | 73° |
| 2026-05-04 11:17 | 48.35352 | 11.78130 | 1484 ft | 2 kts | 80° |
| 2026-05-04 11:17 | 48.35350 | 11.78108 | 1484 ft | 2 kts | 84° |
| 2026-05-04 11:19 | 48.35348 | 11.78087 | 1484 ft | 0 kts | 82° |
| 2026-05-04 11:23 | 48.35349 | 11.78095 | 1484 ft | 3 kts | 83° |
| 2026-05-04 11:23 | 48.35340 | 11.78142 | 1484 ft | 6 kts | 136° |
| 2026-05-04 11:24 | 48.34884 | 11.78157 | 1485 ft | 7 kts | 259° |
| 2026-05-04 11:25 | 48.34877 | 11.78083 | 1485 ft | 7 kts | 256° |
| 2026-05-04 11:25 | 48.34824 | 11.78039 | 1485 ft | 12 kts | 180° |
| 2026-05-04 11:25 | 48.34720 | 11.78048 | 1485 ft | 16 kts | 189° |
| 2026-05-04 11:26 | 48.34645 | 11.77658 | 1486 ft | 25 kts | 264° |
| 2026-05-04 11:27 | 48.34478 | 11.75487 | 1492 ft | 30 kts | 263° |
| 2026-05-04 11:28 | 48.34452 | 11.75174 | 1492 ft | 15 kts | 263° |
| 2026-05-04 11:28 | 48.34411 | 11.75075 | 1493 ft | 10 kts | 190° |
| 2026-05-04 11:28 | 48.34338 | 11.75074 | 1493 ft | 10 kts | 173° |
| 2026-05-04 11:28 | 48.34279 | 11.75085 | 1493 ft | 5 kts | 173° |
| 2026-05-04 11:29 | 48.34240 | 11.75092 | 1494 ft | 7 kts | 173° |
| 2026-05-04 11:29 | 48.34161 | 11.75106 | 1494 ft | 15 kts | 173° |
| 2026-05-04 11:29 | 48.34075 | 11.75230 | 1494 ft | 23 kts | 87° |
| 2026-05-04 11:29 | 48.34114 | 11.75719 | 1493 ft | 81 kts | 83° |
| 2026-05-04 11:31 | 48.35139 | 11.89246 | 4371 ft | 236 kts | 81° |
| 2026-05-04 11:33 | 48.28140 | 12.02826 | 8580 ft | 272 kts | 180° |
| 2026-05-04 11:33 | 48.26213 | 12.02795 | 8958 ft | 283 kts | 187° |
| 2026-05-04 11:33 | 48.24225 | 12.02597 | 9402 ft | 293 kts | 187° |
| 2026-05-04 11:34 | 48.22853 | 12.02465 | 9869 ft | 294 kts | 187° |
| 2026-05-04 11:34 | 48.20832 | 12.02301 | 10647 ft | 292 kts | 186° |
| 2026-05-04 11:34 | 48.18145 | 12.02120 | 11598 ft | 291 kts | 186° |
| 2026-05-04 11:34 | 48.16138 | 12.02023 | 12307 ft | 291 kts | 181° |
| 2026-05-04 11:35 | 48.14813 | 12.02200 | 12750 ft | 294 kts | 174° |
| 2026-05-04 11:35 | 48.12812 | 12.03001 | 13357 ft | 300 kts | 164° |
| 2026-05-04 11:35 | 48.10239 | 12.04610 | 14105 ft | 306 kts | 161° |
| 2026-05-04 11:35 | 48.08275 | 12.05901 | 14645 ft | 309 kts | 162° |
| 2026-05-04 11:36 | 48.06325 | 12.07178 | 15163 ft | 312 kts | 162° |
| 2026-05-04 11:36 | 48.04331 | 12.08470 | 15674 ft | 315 kts | 162° |
| 2026-05-04 11:36 | 48.02306 | 12.09773 | 16177 ft | 319 kts | 163° |
| 2026-05-04 11:36 | 48.00241 | 12.11096 | 16676 ft | 322 kts | 163° |
| 2026-05-04 11:37 | 47.98189 | 12.12408 | 17158 ft | 325 kts | 163° |
| 2026-05-04 11:37 | 47.96114 | 12.13733 | 17629 ft | 329 kts | 163° |
| 2026-05-04 11:37 | 47.94022 | 12.15247 | 17960 ft | 341 kts | 157° |
| 2026-05-04 11:37 | 47.92009 | 12.17193 | 18178 ft | 358 kts | 149° |
| 2026-05-04 11:38 | 47.90029 | 12.19577 | 18404 ft | 371 kts | 146° |
| 2026-05-04 11:38 | 47.88028 | 12.22111 | 18628 ft | 383 kts | 145° |
| 2026-05-04 11:38 | 47.85986 | 12.24703 | 18844 ft | 394 kts | 145° |
| 2026-05-04 11:38 | 47.83842 | 12.27415 | 19060 ft | 404 kts | 145° |
| 2026-05-04 11:39 | 47.81688 | 12.30129 | 19265 ft | 415 kts | 145° |
| 2026-05-04 11:39 | 47.79481 | 12.32901 | 19465 ft | 425 kts | 145° |
| 2026-05-04 11:40 | 47.65074 | 12.50814 | 20802 ft | 473 kts | 145° |
| 2026-05-04 11:41 | 47.62515 | 12.54000 | 21171 ft | 477 kts | 143° |
| 2026-05-04 11:41 | 47.60049 | 12.57282 | 21519 ft | 482 kts | 142° |
| 2026-05-04 11:41 | 47.57555 | 12.60641 | 21857 ft | 486 kts | 142° |
| 2026-05-04 11:41 | 47.55065 | 12.63998 | 22192 ft | 489 kts | 142° |
| 2026-05-04 11:42 | 47.52533 | 12.67417 | 22517 ft | 493 kts | 142° |
| 2026-05-04 11:42 | 47.50863 | 12.69678 | 22729 ft | 495 kts | 142° |
| 2026-05-04 11:42 | 47.47458 | 12.74279 | 23146 ft | 500 kts | 142° |
| 2026-05-04 11:42 | 47.45135 | 12.77407 | 23418 ft | 503 kts | 142° |
| 2026-05-04 11:43 | 47.42910 | 12.80396 | 23672 ft | 505 kts | 142° |
| 2026-05-04 11:43 | 47.37367 | 12.87817 | 24267 ft | 512 kts | 142° |
| 2026-05-04 11:43 | 47.34740 | 12.91324 | 24536 ft | 515 kts | 142° |
| 2026-05-04 11:44 | 47.32075 | 12.94876 | 24801 ft | 519 kts | 142° |
| 2026-05-04 11:44 | 47.29384 | 12.98456 | 25053 ft | 522 kts | 142° |
| 2026-05-04 11:44 | 47.26691 | 13.02029 | 25255 ft | 526 kts | 141° |
| 2026-05-04 11:44 | 47.23955 | 13.05653 | 25424 ft | 531 kts | 141° |
| 2026-05-04 11:45 | 47.21194 | 13.09306 | 25595 ft | 536 kts | 140° |
| 2026-05-04 11:45 | 47.18440 | 13.12948 | 25770 ft | 540 kts | 140° |
| 2026-05-04 11:45 | 47.15644 | 13.16641 | 25956 ft | 544 kts | 139° |
| 2026-05-04 11:45 | 47.12805 | 13.20387 | 26173 ft | 547 kts | 139° |
| 2026-05-04 11:46 | 47.10938 | 13.22851 | 26381 ft | 548 kts | 139° |
| 2026-05-04 11:46 | 47.08091 | 13.26609 | 26675 ft | 549 kts | 139° |
| 2026-05-04 11:46 | 47.04362 | 13.31522 | 27111 ft | 549 kts | 139° |
| 2026-05-04 11:46 | 47.01516 | 13.35260 | 27449 ft | 549 kts | 138° |
| 2026-05-04 11:47 | 46.98669 | 13.38987 | 27790 ft | 549 kts | 138° |
| 2026-05-04 11:47 | 46.95825 | 13.42703 | 28144 ft | 548 kts | 137° |
| 2026-05-04 11:47 | 46.92990 | 13.46401 | 28498 ft | 547 kts | 137° |
| 2026-05-04 11:47 | 46.90165 | 13.50085 | 28847 ft | 546 kts | 137° |
| 2026-05-04 11:48 | 46.87340 | 13.53751 | 29165 ft | 545 kts | 136° |
| 2026-05-04 11:48 | 46.84515 | 13.57405 | 29463 ft | 545 kts | 136° |
| 2026-05-04 11:48 | 46.81703 | 13.61042 | 29728 ft | 545 kts | 136° |
| 2026-05-04 11:48 | 46.78853 | 13.64731 | 29973 ft | 545 kts | 136° |
| 2026-05-04 11:49 | 46.76033 | 13.68390 | 30199 ft | 546 kts | 137° |
| 2026-05-04 11:49 | 46.73229 | 13.72034 | 30420 ft | 546 kts | 137° |
| 2026-05-04 11:49 | 46.70394 | 13.75707 | 30645 ft | 546 kts | 137° |
| 2026-05-04 11:49 | 46.67570 | 13.79354 | 30867 ft | 547 kts | 137° |
| 2026-05-04 11:50 | 46.64730 | 13.83013 | 31086 ft | 547 kts | 137° |
| 2026-05-04 11:50 | 46.61886 | 13.86668 | 31299 ft | 547 kts | 136° |
| 2026-05-04 11:50 | 46.59044 | 13.90316 | 31507 ft | 547 kts | 136° |
| 2026-05-04 11:50 | 46.56176 | 13.93992 | 31714 ft | 548 kts | 136° |
| 2026-05-04 11:51 | 46.53328 | 13.97636 | 31920 ft | 548 kts | 136° |
| 2026-05-04 11:51 | 46.50483 | 14.01238 | 32117 ft | 548 kts | 138° |
| 2026-05-04 11:51 | 46.47495 | 14.04686 | 32310 ft | 550 kts | 142° |
| 2026-05-04 11:51 | 46.44377 | 14.07894 | 32505 ft | 550 kts | 144° |
| 2026-05-04 11:52 | 46.41254 | 14.10999 | 32698 ft | 551 kts | 144° |
| 2026-05-04 11:52 | 46.38101 | 14.14111 | 32884 ft | 551 kts | 144° |
| 2026-05-04 11:52 | 46.34936 | 14.17236 | 33066 ft | 551 kts | 144° |
| 2026-05-04 11:52 | 46.31770 | 14.20368 | 33245 ft | 551 kts | 144° |
| 2026-05-04 11:53 | 46.28628 | 14.23480 | 33422 ft | 552 kts | 144° |
| 2026-05-04 11:53 | 46.25469 | 14.26611 | 33600 ft | 552 kts | 143° |
| 2026-05-04 11:53 | 46.22292 | 14.29758 | 33778 ft | 552 kts | 143° |
| 2026-05-04 11:53 | 46.19134 | 14.32882 | 33952 ft | 552 kts | 143° |
| 2026-05-04 11:55 | 45.97044 | 14.54622 | 35207 ft | 550 kts | 143° |
| 2026-05-04 11:55 | 45.93899 | 14.57700 | 35374 ft | 550 kts | 143° |
| 2026-05-04 11:56 | 45.90749 | 14.60778 | 35538 ft | 549 kts | 143° |
| 2026-05-04 11:56 | 45.87604 | 14.63841 | 35675 ft | 549 kts | 143° |
| 2026-05-04 11:56 | 45.84471 | 14.66880 | 35787 ft | 548 kts | 144° |
| 2026-05-04 11:57 | 45.78193 | 14.72992 | 35983 ft | 548 kts | 144° |
| 2026-05-04 11:57 | 45.71896 | 14.79105 | 36175 ft | 548 kts | 144° |
| 2026-05-04 11:58 | 45.65616 | 14.85182 | 36359 ft | 548 kts | 144° |